Meridian — EI6085 — position and weather

sailwx.info

Track history (hours):
 
Tides and Currents Weather Stations Pressure Air Temp Water Temp Dewpoint Dewpoint Depression Visibility Wind Speed Wind Dir Waves Ship Positions

Meridian

Last reported at 2016-Jun-28 11:04 UTC. Time now 2016-Jun-28 17:02 UTC.
Position N 54°38' W 008°27'.

Length 12 m.

Type: Fishing. MMSI: 250107450.

Date/timePositionNaut miles runAvg speedWind from/ knotsBaromVisibWave heightAir tempDewpointWater temp
2016-Jun-28 11:04N 54°38' W 008°27'0 0.4
2016-Jun-28 10:33N 54°38' W 008°26'2 2.2
2016-Jun-28 09:33N 54°36' W 008°26'2 2.3
2016-Jun-28 08:32N 54°38' W 008°27'0 0.1
2016-Jun-28 07:33N 54°38' W 008°27'0 0.0
2016-Jun-26 15:24N 54°38' W 008°27'1 1.0
2016-Jun-26 14:33N 54°37' W 008°26'1 0.6
2016-Jun-26 13:32N 54°37' W 008°27'3 2.6
2016-Jun-26 12:32N 54°37' W 008°32'1 1.1
2016-Jun-26 11:20N 54°35' W 008°32'3 3.3
2016-Jun-26 10:33N 54°36' W 008°27'1 0.7
2016-Jun-26 09:33N 54°37' W 008°26'2 1.5
2016-Jun-26 08:31N 54°38' W 008°27'0 0.0
2016-Jun-26 07:31N 54°38' W 008°27'0 0.0
2016-Jun-25 16:20N 54°38' W 008°27'0 0.2
2016-Jun-25 15:33N 54°38' W 008°27'3 3.4
2016-Jun-25 14:32N 54°36' W 008°32'2 1.6
2016-Jun-25 13:33N 54°36' W 008°34'1 0.5
2016-Jun-25 12:31N 54°36' W 008°35'0 0.3
2016-Jun-25 11:26N 54°36' W 008°35'4 4.2
2016-Jun-25 10:28N 54°36' W 008°28'2 2.2
2016-Jun-25 09:32N 54°38' W 008°27'0 0.0
2016-Jun-25 08:33N 54°38' W 008°27'0 0.0
2016-Jun-24 19:33N 54°38' W 008°27'3 2.7
2016-Jun-24 18:29N 54°36' W 008°30'1 1.1
2016-Jun-24 17:33N 54°36' W 008°28'1 1.5
2016-Jun-24 16:33N 54°37' W 008°26'1 0.8
2016-Jun-24 15:33N 54°38' W 008°27'0 0.0
2016-Jun-24 09:04N 54°38' W 008°27'0 0.0
2016-Jun-22 16:31N 54°38' W 008°27'0 0.2
2016-Jun-22 15:33N 54°38' W 008°27'2 2.2
2016-Jun-22 14:32N 54°37' W 008°24'0 0.1
2016-Jun-22 13:32N 54°36' W 008°24'3 2.9
2016-Jun-22 12:33N 54°35' W 008°28'1 1.3
2016-Jun-22 11:33N 54°34' W 008°30'2 2.2
2016-Jun-22 10:33N 54°36' W 008°27'1 0.9
2016-Jun-22 09:33N 54°37' W 008°27'2 1.6
2016-Jun-22 08:33N 54°38' W 008°27'  
Track history (hours):
 
Tides and Currents Weather Stations Pressure Air Temp Water Temp Dewpoint Dewpoint Depression Visibility Wind Speed Wind Dir Waves Ship Positions

Meridian

Last reported at 2016-Jun-28 11:04 UTC. Time now 2016-Jun-28 17:02 UTC.
Position N 54°38' W 008°27'.

Length 12 m.

Type: Fishing. MMSI: 250107450.

Date/timePositionNaut miles runAvg speedWind from/ knotsBaromVisibWave heightAir tempDewpointWater temp
2016-Jun-28 11:04N 54°38' W 008°27'0 0.4
2016-Jun-28 10:33N 54°38' W 008°26'2 2.2
2016-Jun-28 09:33N 54°36' W 008°26'2 2.3
2016-Jun-28 08:32N 54°38' W 008°27'0 0.1
2016-Jun-28 07:33N 54°38' W 008°27'0 0.0
2016-Jun-26 15:24N 54°38' W 008°27'1 1.0
2016-Jun-26 14:33N 54°37' W 008°26'1 0.6
2016-Jun-26 13:32N 54°37' W 008°27'3 2.6
2016-Jun-26 12:32N 54°37' W 008°32'1 1.1
2016-Jun-26 11:20N 54°35' W 008°32'3 3.3
2016-Jun-26 10:33N 54°36' W 008°27'1 0.7
2016-Jun-26 09:33N 54°37' W 008°26'2 1.5
2016-Jun-26 08:31N 54°38' W 008°27'0 0.0
2016-Jun-26 07:31N 54°38' W 008°27'0 0.0
2016-Jun-25 16:20N 54°38' W 008°27'0 0.2
2016-Jun-25 15:33N 54°38' W 008°27'3 3.4
2016-Jun-25 14:32N 54°36' W 008°32'2 1.6
2016-Jun-25 13:33N 54°36' W 008°34'1 0.5
2016-Jun-25 12:31N 54°36' W 008°35'0 0.3
2016-Jun-25 11:26N 54°36' W 008°35'4 4.2
2016-Jun-25 10:28N 54°36' W 008°28'2 2.2
2016-Jun-25 09:32N 54°38' W 008°27'0 0.0
2016-Jun-25 08:33N 54°38' W 008°27'0 0.0
2016-Jun-24 19:33N 54°38' W 008°27'3 2.7
2016-Jun-24 18:29N 54°36' W 008°30'1 1.1
2016-Jun-24 17:33N 54°36' W 008°28'1 1.5
2016-Jun-24 16:33N 54°37' W 008°26'1 0.8
2016-Jun-24 15:33N 54°38' W 008°27'0 0.0
2016-Jun-24 09:04N 54°38' W 008°27'0 0.0
2016-Jun-22 16:31N 54°38' W 008°27'0 0.2
2016-Jun-22 15:33N 54°38' W 008°27'2 2.2
2016-Jun-22 14:32N 54°37' W 008°24'0 0.1
2016-Jun-22 13:32N 54°36' W 008°24'3 2.9
2016-Jun-22 12:33N 54°35' W 008°28'1 1.3
2016-Jun-22 11:33N 54°34' W 008°30'2 2.2
2016-Jun-22 10:33N 54°36' W 008°27'1 0.9
2016-Jun-22 09:33N 54°37' W 008°27'2 1.6
2016-Jun-22 08:33N 54°38' W 008°27'  

Dump ship's entire track history